Terminal Aerodrome Forecast
Issued by NWS

Home | Current Version | Previous Version | Text Only | Print | Product List | Glossary On
Versions: 1 2 3 4 5 6 7 8 9 10 11 12
773
FTUS46 KPDT 162338
TAFDLS
TAF
KDLS 162338Z 1700/1724 31005KT P6SM SKC
     FM170600 VRB03KT P6SM SKC
     FM171400 30005KT P6SM SCT150
     FM172000 31022G30KT P6SM SCT070=

USA.gov is the U.S. government's official web portal to all federal, state and local government web resources and services.